sensor_id;sensor_type;location;lat;lon;timestamp;P1;durP1;ratioP1;P2;durP2;ratioP2
18693;SDS011;9477;51.414;10.362;2023-02-03T00:01:16;5.30;;;4.77;;
18693;SDS011;9477;51.414;10.362;2023-02-03T00:03:18;7.73;;;5.80;;
18693;SDS011;9477;51.414;10.362;2023-02-03T00:05:21;6.87;;;6.10;;
18693;SDS011;9477;51.414;10.362;2023-02-03T00:07:25;6.67;;;5.67;;
18693;SDS011;9477;51.414;10.362;2023-02-03T00:09:28;6.57;;;5.07;;
18693;SDS011;9477;51.414;10.362;2023-02-03T00:11:31;7.03;;;5.97;;
18693;SDS011;9477;51.414;10.362;2023-02-03T00:13:35;6.70;;;5.97;;
18693;SDS011;9477;51.414;10.362;2023-02-03T00:15:38;6.83;;;5.90;;
18693;SDS011;9477;51.414;10.362;2023-02-03T00:17:41;6.17;;;5.57;;
18693;SDS011;9477;51.414;10.362;2023-02-03T00:19:43;7.67;;;6.17;;
18693;SDS011;9477;51.414;10.362;2023-02-03T00:21:46;6.97;;;5.97;;
18693;SDS011;9477;51.414;10.362;2023-02-03T00:23:49;9.90;;;6.47;;
18693;SDS011;9477;51.414;10.362;2023-02-03T00:25:52;8.67;;;6.63;;
18693;SDS011;9477;51.414;10.362;2023-02-03T00:27:54;8.00;;;6.73;;
18693;SDS011;9477;51.414;10.362;2023-02-03T00:29:59;9.57;;;7.03;;
18693;SDS011;9477;51.414;10.362;2023-02-03T00:32:02;5.97;;;5.33;;
18693;SDS011;9477;51.414;10.362;2023-02-03T00:34:05;6.90;;;6.20;;
18693;SDS011;9477;51.414;10.362;2023-02-03T00:36:09;8.07;;;6.33;;
18693;SDS011;9477;51.414;10.362;2023-02-03T00:38:12;6.30;;;5.20;;
18693;SDS011;9477;51.414;10.362;2023-02-03T00:40:15;9.90;;;6.83;;
18693;SDS011;9477;51.414;10.362;2023-02-03T00:42:17;7.63;;;6.83;;
18693;SDS011;9477;51.414;10.362;2023-02-03T00:44:20;7.80;;;6.20;;
18693;SDS011;9477;51.414;10.362;2023-02-03T00:46:24;7.60;;;6.80;;
18693;SDS011;9477;51.414;10.362;2023-02-03T00:48:28;4.67;;;3.57;;
18693;SDS011;9477;51.414;10.362;2023-02-03T00:50:30;9.80;;;8.10;;
18693;SDS011;9477;51.414;10.362;2023-02-03T00:52:33;10.13;;;7.97;;
18693;SDS011;9477;51.414;10.362;2023-02-03T00:54:36;10.43;;;8.30;;
18693;SDS011;9477;51.414;10.362;2023-02-03T00:56:39;10.70;;;9.07;;
18693;SDS011;9477;51.414;10.362;2023-02-03T00:58:41;11.00;;;9.10;;
18693;SDS011;9477;51.414;10.362;2023-02-03T01:00:44;11.13;;;9.10;;
18693;SDS011;9477;51.414;10.362;2023-02-03T01:02:48;12.17;;;9.20;;
18693;SDS011;9477;51.414;10.362;2023-02-03T01:04:51;10.53;;;8.80;;
18693;SDS011;9477;51.414;10.362;2023-02-03T01:06:54;10.20;;;8.53;;
18693;SDS011;9477;51.414;10.362;2023-02-03T01:09:00;12.60;;;9.77;;
18693;SDS011;9477;51.414;10.362;2023-02-03T01:11:06;13.27;;;9.67;;
18693;SDS011;9477;51.414;10.362;2023-02-03T01:13:10;12.27;;;10.00;;
18693;SDS011;9477;51.414;10.362;2023-02-03T01:15:13;11.17;;;9.30;;
18693;SDS011;9477;51.414;10.362;2023-02-03T01:17:15;12.50;;;9.60;;
18693;SDS011;9477;51.414;10.362;2023-02-03T01:19:20;11.97;;;9.83;;
18693;SDS011;9477;51.414;10.362;2023-02-03T01:21:24;13.33;;;9.83;;
18693;SDS011;9477;51.414;10.362;2023-02-03T01:23:27;11.43;;;10.23;;
18693;SDS011;9477;51.414;10.362;2023-02-03T01:25:30;14.27;;;10.53;;
18693;SDS011;9477;51.414;10.362;2023-02-03T01:27:32;13.70;;;10.90;;
18693;SDS011;9477;51.414;10.362;2023-02-03T01:29:35;10.70;;;9.33;;
18693;SDS011;9477;51.414;10.362;2023-02-03T01:31:39;11.60;;;9.40;;
18693;SDS011;9477;51.414;10.362;2023-02-03T01:33:43;12.40;;;10.50;;
18693;SDS011;9477;51.414;10.362;2023-02-03T01:35:50;13.00;;;9.23;;
18693;SDS011;9477;51.414;10.362;2023-02-03T01:37:52;16.27;;;12.10;;
18693;SDS011;9477;51.414;10.362;2023-02-03T01:39:55;13.40;;;10.37;;
18693;SDS011;9477;51.414;10.362;2023-02-03T01:41:58;11.47;;;9.70;;
18693;SDS011;9477;51.414;10.362;2023-02-03T01:44:01;12.93;;;10.47;;
18693;SDS011;9477;51.414;10.362;2023-02-03T01:46:37;13.37;;;11.20;;
18693;SDS011;9477;51.414;10.362;2023-02-03T01:48:45;13.93;;;10.53;;
18693;SDS011;9477;51.414;10.362;2023-02-03T01:50:49;15.47;;;11.70;;
18693;SDS011;9477;51.414;10.362;2023-02-03T01:52:55;13.37;;;10.73;;
18693;SDS011;9477;51.414;10.362;2023-02-03T01:55:03;17.67;;;12.27;;
18693;SDS011;9477;51.414;10.362;2023-02-03T01:57:09;15.13;;;12.00;;
18693;SDS011;9477;51.414;10.362;2023-02-03T01:59:16;15.27;;;11.97;;
18693;SDS011;9477;51.414;10.362;2023-02-03T02:01:22;15.00;;;11.90;;
18693;SDS011;9477;51.414;10.362;2023-02-03T02:03:25;15.93;;;12.23;;
18693;SDS011;9477;51.414;10.362;2023-02-03T02:05:34;14.97;;;11.10;;
18693;SDS011;9477;51.414;10.362;2023-02-03T02:07:41;15.17;;;11.37;;
18693;SDS011;9477;51.414;10.362;2023-02-03T02:09:46;14.47;;;11.07;;
18693;SDS011;9477;51.414;10.362;2023-02-03T02:11:49;13.07;;;10.83;;
18693;SDS011;9477;51.414;10.362;2023-02-03T02:13:52;13.93;;;10.57;;
18693;SDS011;9477;51.414;10.362;2023-02-03T02:15:59;13.23;;;11.00;;
18693;SDS011;9477;51.414;10.362;2023-02-03T02:23:39;13.07;;;10.30;;
18693;SDS011;9477;51.414;10.362;2023-02-03T02:28:43;11.93;;;9.73;;
18693;SDS011;9477;51.414;10.362;2023-02-03T02:31:04;14.63;;;10.97;;
18693;SDS011;9477;51.414;10.362;2023-02-03T02:33:27;15.20;;;10.20;;
18693;SDS011;9477;51.414;10.362;2023-02-03T02:35:42;16.37;;;10.73;;
18693;SDS011;9477;51.414;10.362;2023-02-03T02:37:51;13.97;;;9.70;;
18693;SDS011;9477;51.414;10.362;2023-02-03T02:40:02;14.40;;;11.30;;
18693;SDS011;9477;51.414;10.362;2023-02-03T02:42:13;13.53;;;11.23;;
18693;SDS011;9477;51.414;10.362;2023-02-03T02:44:20;15.23;;;11.30;;
18693;SDS011;9477;51.414;10.362;2023-02-03T02:46:27;13.70;;;10.90;;
18693;SDS011;9477;51.414;10.362;2023-02-03T02:48:36;13.67;;;10.53;;
18693;SDS011;9477;51.414;10.362;2023-02-03T02:50:45;16.70;;;10.93;;
18693;SDS011;9477;51.414;10.362;2023-02-03T02:52:51;16.50;;;11.17;;
18693;SDS011;9477;51.414;10.362;2023-02-03T02:54:55;16.03;;;10.80;;
18693;SDS011;9477;51.414;10.362;2023-02-03T02:57:09;15.17;;;10.13;;
18693;SDS011;9477;51.414;10.362;2023-02-03T02:59:14;15.33;;;10.20;;
18693;SDS011;9477;51.414;10.362;2023-02-03T03:01:17;13.83;;;10.73;;
18693;SDS011;9477;51.414;10.362;2023-02-03T03:03:21;15.63;;;11.53;;
18693;SDS011;9477;51.414;10.362;2023-02-03T03:05:26;20.23;;;11.40;;
18693;SDS011;9477;51.414;10.362;2023-02-03T03:07:30;15.30;;;11.63;;
18693;SDS011;9477;51.414;10.362;2023-02-03T03:09:38;13.33;;;10.50;;
18693;SDS011;9477;51.414;10.362;2023-02-03T03:11:46;16.63;;;11.00;;
18693;SDS011;9477;51.414;10.362;2023-02-03T03:13:52;14.03;;;10.63;;
18693;SDS011;9477;51.414;10.362;2023-02-03T03:15:57;14.73;;;11.07;;
18693;SDS011;9477;51.414;10.362;2023-02-03T03:18:03;14.63;;;11.00;;
18693;SDS011;9477;51.414;10.362;2023-02-03T03:20:10;14.33;;;9.93;;
18693;SDS011;9477;51.414;10.362;2023-02-03T03:22:23;14.37;;;11.33;;
18693;SDS011;9477;51.414;10.362;2023-02-03T03:24:30;11.13;;;9.03;;
18693;SDS011;9477;51.414;10.362;2023-02-03T03:26:37;13.17;;;10.60;;
18693;SDS011;9477;51.414;10.362;2023-02-03T03:28:46;16.27;;;11.43;;
18693;SDS011;9477;51.414;10.362;2023-02-03T03:30:51;14.50;;;11.07;;
18693;SDS011;9477;51.414;10.362;2023-02-03T03:32:55;13.27;;;11.00;;
18693;SDS011;9477;51.414;10.362;2023-02-03T03:34:58;11.90;;;10.50;;
18693;SDS011;9477;51.414;10.362;2023-02-03T03:37:05;10.60;;;8.40;;
18693;SDS011;9477;51.414;10.362;2023-02-03T03:39:16;15.13;;;11.57;;
18693;SDS011;9477;51.414;10.362;2023-02-03T03:41:27;15.27;;;11.43;;
18693;SDS011;9477;51.414;10.362;2023-02-03T03:43:38;14.60;;;10.80;;
18693;SDS011;9477;51.414;10.362;2023-02-03T03:45:45;14.20;;;11.00;;
18693;SDS011;9477;51.414;10.362;2023-02-03T03:47:55;15.03;;;11.47;;
18693;SDS011;9477;51.414;10.362;2023-02-03T03:50:00;12.93;;;10.07;;
18693;SDS011;9477;51.414;10.362;2023-02-03T03:52:06;14.43;;;11.43;;
18693;SDS011;9477;51.414;10.362;2023-02-03T03:54:13;13.63;;;10.93;;
18693;SDS011;9477;51.414;10.362;2023-02-03T03:56:21;14.67;;;11.17;;
18693;SDS011;9477;51.414;10.362;2023-02-03T03:58:29;11.37;;;9.07;;
18693;SDS011;9477;51.414;10.362;2023-02-03T04:00:33;11.00;;;9.63;;
18693;SDS011;9477;51.414;10.362;2023-02-03T04:02:38;13.70;;;10.20;;
18693;SDS011;9477;51.414;10.362;2023-02-03T04:04:43;13.97;;;10.50;;
18693;SDS011;9477;51.414;10.362;2023-02-03T04:06:48;12.27;;;10.20;;
18693;SDS011;9477;51.414;10.362;2023-02-03T04:08:53;12.87;;;10.50;;
18693;SDS011;9477;51.414;10.362;2023-02-03T04:10:57;11.93;;;9.77;;
18693;SDS011;9477;51.414;10.362;2023-02-03T04:13:00;13.07;;;10.30;;
18693;SDS011;9477;51.414;10.362;2023-02-03T04:15:04;13.33;;;9.80;;
18693;SDS011;9477;51.414;10.362;2023-02-03T04:17:07;12.40;;;9.73;;
18693;SDS011;9477;51.414;10.362;2023-02-03T04:19:10;11.00;;;9.00;;
18693;SDS011;9477;51.414;10.362;2023-02-03T04:21:12;13.90;;;9.77;;
18693;SDS011;9477;51.414;10.362;2023-02-03T04:23:15;11.37;;;9.00;;
18693;SDS011;9477;51.414;10.362;2023-02-03T04:25:18;15.57;;;9.87;;
18693;SDS011;9477;51.414;10.362;2023-02-03T04:27:22;9.73;;;7.23;;
18693;SDS011;9477;51.414;10.362;2023-02-03T04:29:25;13.13;;;9.50;;
18693;SDS011;9477;51.414;10.362;2023-02-03T04:31:28;13.93;;;9.70;;
18693;SDS011;9477;51.414;10.362;2023-02-03T04:33:31;12.93;;;8.77;;
18693;SDS011;9477;51.414;10.362;2023-02-03T04:35:33;10.77;;;8.43;;
18693;SDS011;9477;51.414;10.362;2023-02-03T04:37:36;12.87;;;8.80;;
18693;SDS011;9477;51.414;10.362;2023-02-03T04:39:39;13.93;;;8.63;;
18693;SDS011;9477;51.414;10.362;2023-02-03T04:41:42;10.57;;;8.87;;
18693;SDS011;9477;51.414;10.362;2023-02-03T04:43:46;10.67;;;7.47;;
18693;SDS011;9477;51.414;10.362;2023-02-03T04:45:49;12.97;;;7.67;;
18693;SDS011;9477;51.414;10.362;2023-02-03T04:47:51;13.00;;;7.57;;
18693;SDS011;9477;51.414;10.362;2023-02-03T04:49:55;13.23;;;9.47;;
18693;SDS011;9477;51.414;10.362;2023-02-03T04:51:57;10.40;;;8.07;;
18693;SDS011;9477;51.414;10.362;2023-02-03T04:54:00;9.07;;;7.10;;
18693;SDS011;9477;51.414;10.362;2023-02-03T04:56:03;9.47;;;7.73;;
18693;SDS011;9477;51.414;10.362;2023-02-03T04:58:07;26.83;;;15.10;;
18693;SDS011;9477;51.414;10.362;2023-02-03T05:00:12;24.20;;;13.60;;
18693;SDS011;9477;51.414;10.362;2023-02-03T05:02:15;12.90;;;8.37;;
18693;SDS011;9477;51.414;10.362;2023-02-03T05:04:18;13.23;;;8.03;;
18693;SDS011;9477;51.414;10.362;2023-02-03T05:06:22;11.43;;;7.37;;
18693;SDS011;9477;51.414;10.362;2023-02-03T05:08:25;30.87;;;15.87;;
18693;SDS011;9477;51.414;10.362;2023-02-03T05:10:28;9.63;;;5.70;;
18693;SDS011;9477;51.414;10.362;2023-02-03T05:14:34;13.17;;;7.20;;
18693;SDS011;9477;51.414;10.362;2023-02-03T05:16:38;10.23;;;7.87;;
18693;SDS011;9477;51.414;10.362;2023-02-03T05:18:42;9.20;;;7.03;;
18693;SDS011;9477;51.414;10.362;2023-02-03T05:20:44;13.33;;;8.07;;
18693;SDS011;9477;51.414;10.362;2023-02-03T05:22:47;7.93;;;6.00;;
18693;SDS011;9477;51.414;10.362;2023-02-03T05:24:50;12.17;;;8.13;;
18693;SDS011;9477;51.414;10.362;2023-02-03T05:26:53;10.93;;;7.13;;
18693;SDS011;9477;51.414;10.362;2023-02-03T05:28:55;6.70;;;5.60;;
18693;SDS011;9477;51.414;10.362;2023-02-03T05:30:58;8.57;;;4.97;;
18693;SDS011;9477;51.414;10.362;2023-02-03T05:33:03;9.20;;;6.53;;
18693;SDS011;9477;51.414;10.362;2023-02-03T05:35:06;6.50;;;5.50;;
18693;SDS011;9477;51.414;10.362;2023-02-03T05:37:09;11.50;;;6.40;;
18693;SDS011;9477;51.414;10.362;2023-02-03T05:39:12;6.50;;;5.50;;
18693;SDS011;9477;51.414;10.362;2023-02-03T05:41:15;9.83;;;5.77;;
18693;SDS011;9477;51.414;10.362;2023-02-03T05:43:35;9.07;;;6.33;;
18693;SDS011;9477;51.414;10.362;2023-02-03T05:45:38;10.10;;;6.00;;
18693;SDS011;9477;51.414;10.362;2023-02-03T05:47:41;10.82;;;6.40;;
18693;SDS011;9477;51.414;10.362;2023-02-03T05:49:45;13.63;;;5.70;;
18693;SDS011;9477;51.414;10.362;2023-02-03T05:51:48;7.97;;;6.30;;
18693;SDS011;9477;51.414;10.362;2023-02-03T05:53:51;9.87;;;5.67;;
18693;SDS011;9477;51.414;10.362;2023-02-03T05:55:54;9.40;;;5.70;;
18693;SDS011;9477;51.414;10.362;2023-02-03T05:57:57;10.10;;;5.93;;
18693;SDS011;9477;51.414;10.362;2023-02-03T06:00:01;6.50;;;5.07;;
18693;SDS011;9477;51.414;10.362;2023-02-03T06:02:04;6.70;;;5.03;;
18693;SDS011;9477;51.414;10.362;2023-02-03T06:04:07;7.17;;;4.63;;
18693;SDS011;9477;51.414;10.362;2023-02-03T06:06:11;5.87;;;3.60;;
18693;SDS011;9477;51.414;10.362;2023-02-03T06:08:14;7.77;;;4.77;;
18693;SDS011;9477;51.414;10.362;2023-02-03T06:10:17;9.47;;;5.03;;
18693;SDS011;9477;51.414;10.362;2023-02-03T06:12:20;7.70;;;4.70;;
18693;SDS011;9477;51.414;10.362;2023-02-03T06:14:23;6.27;;;4.70;;
18693;SDS011;9477;51.414;10.362;2023-02-03T06:16:26;6.27;;;4.70;;
18693;SDS011;9477;51.414;10.362;2023-02-03T06:18:29;5.40;;;4.33;;
18693;SDS011;9477;51.414;10.362;2023-02-03T06:20:33;9.07;;;4.63;;
18693;SDS011;9477;51.414;10.362;2023-02-03T06:22:37;9.57;;;5.27;;
18693;SDS011;9477;51.414;10.362;2023-02-03T06:24:40;8.93;;;4.37;;
18693;SDS011;9477;51.414;10.362;2023-02-03T06:26:44;9.37;;;5.33;;
18693;SDS011;9477;51.414;10.362;2023-02-03T06:28:47;11.30;;;6.90;;
18693;SDS011;9477;51.414;10.362;2023-02-03T06:30:50;8.90;;;5.90;;
18693;SDS011;9477;51.414;10.362;2023-02-03T06:32:54;8.73;;;5.20;;
18693;SDS011;9477;51.414;10.362;2023-02-03T06:34:57;8.47;;;6.20;;
18693;SDS011;9477;51.414;10.362;2023-02-03T06:36:59;9.13;;;5.30;;
18693;SDS011;9477;51.414;10.362;2023-02-03T06:39:04;8.03;;;5.40;;
18693;SDS011;9477;51.414;10.362;2023-02-03T06:41:06;8.97;;;6.37;;
18693;SDS011;9477;51.414;10.362;2023-02-03T06:43:09;9.17;;;5.23;;
18693;SDS011;9477;51.414;10.362;2023-02-03T06:45:12;9.47;;;5.50;;
18693;SDS011;9477;51.414;10.362;2023-02-03T06:47:15;8.60;;;5.00;;
18693;SDS011;9477;51.414;10.362;2023-02-03T06:49:18;7.07;;;4.90;;
18693;SDS011;9477;51.414;10.362;2023-02-03T06:51:20;7.27;;;4.13;;
18693;SDS011;9477;51.414;10.362;2023-02-03T06:53:24;6.63;;;3.77;;
18693;SDS011;9477;51.414;10.362;2023-02-03T06:55:29;7.63;;;4.37;;
18693;SDS011;9477;51.414;10.362;2023-02-03T06:57:32;5.63;;;4.40;;
18693;SDS011;9477;51.414;10.362;2023-02-03T06:59:35;8.03;;;4.43;;
18693;SDS011;9477;51.414;10.362;2023-02-03T07:01:38;8.03;;;4.70;;
18693;SDS011;9477;51.414;10.362;2023-02-03T07:03:41;8.63;;;4.10;;
18693;SDS011;9477;51.414;10.362;2023-02-03T07:05:43;6.10;;;4.70;;
18693;SDS011;9477;51.414;10.362;2023-02-03T07:07:46;5.20;;;3.93;;
18693;SDS011;9477;51.414;10.362;2023-02-03T07:09:49;8.50;;;4.93;;
18693;SDS011;9477;51.414;10.362;2023-02-03T07:11:53;8.80;;;5.37;;
18693;SDS011;9477;51.414;10.362;2023-02-03T07:13:56;22.13;;;13.77;;
18693;SDS011;9477;51.414;10.362;2023-02-03T07:15:59;19.67;;;12.27;;
18693;SDS011;9477;51.414;10.362;2023-02-03T07:18:02;10.60;;;6.07;;
18693;SDS011;9477;51.414;10.362;2023-02-03T07:20:05;7.33;;;4.83;;
18693;SDS011;9477;51.414;10.362;2023-02-03T07:22:09;8.53;;;5.20;;
18693;SDS011;9477;51.414;10.362;2023-02-03T07:24:12;12.13;;;4.80;;
18693;SDS011;9477;51.414;10.362;2023-02-03T07:26:15;10.30;;;4.70;;
18693;SDS011;9477;51.414;10.362;2023-02-03T07:28:20;13.53;;;8.33;;
18693;SDS011;9477;51.414;10.362;2023-02-03T07:30:23;12.57;;;5.17;;
18693;SDS011;9477;51.414;10.362;2023-02-03T07:32:26;9.30;;;5.57;;
18693;SDS011;9477;51.414;10.362;2023-02-03T07:34:29;5.97;;;4.00;;
18693;SDS011;9477;51.414;10.362;2023-02-03T07:36:31;8.93;;;4.90;;
18693;SDS011;9477;51.414;10.362;2023-02-03T07:38:34;7.90;;;4.37;;
18693;SDS011;9477;51.414;10.362;2023-02-03T07:40:38;7.03;;;4.93;;
18693;SDS011;9477;51.414;10.362;2023-02-03T07:42:41;6.73;;;3.80;;
18693;SDS011;9477;51.414;10.362;2023-02-03T07:44:46;6.63;;;3.53;;
18693;SDS011;9477;51.414;10.362;2023-02-03T07:46:49;6.17;;;4.33;;
18693;SDS011;9477;51.414;10.362;2023-02-03T07:48:51;6.33;;;4.20;;
18693;SDS011;9477;51.414;10.362;2023-02-03T07:50:54;9.23;;;4.57;;
18693;SDS011;9477;51.414;10.362;2023-02-03T07:52:57;11.83;;;4.50;;
18693;SDS011;9477;51.414;10.362;2023-02-03T07:55:00;6.27;;;4.10;;
18693;SDS011;9477;51.414;10.362;2023-02-03T07:57:03;7.13;;;4.27;;
18693;SDS011;9477;51.414;10.362;2023-02-03T07:59:06;7.27;;;4.47;;
18693;SDS011;9477;51.414;10.362;2023-02-03T08:01:11;8.87;;;4.40;;
18693;SDS011;9477;51.414;10.362;2023-02-03T08:03:15;6.90;;;4.37;;
18693;SDS011;9477;51.414;10.362;2023-02-03T08:05:17;6.27;;;4.83;;
18693;SDS011;9477;51.414;10.362;2023-02-03T08:07:20;6.73;;;4.50;;
18693;SDS011;9477;51.414;10.362;2023-02-03T08:09:23;6.80;;;4.87;;
18693;SDS011;9477;51.414;10.362;2023-02-03T08:11:26;7.93;;;4.33;;
18693;SDS011;9477;51.414;10.362;2023-02-03T08:13:28;7.20;;;4.83;;
18693;SDS011;9477;51.414;10.362;2023-02-03T08:15:31;7.63;;;4.80;;
18693;SDS011;9477;51.414;10.362;2023-02-03T08:17:35;7.10;;;4.50;;
18693;SDS011;9477;51.414;10.362;2023-02-03T08:19:40;7.00;;;4.73;;
18693;SDS011;9477;51.414;10.362;2023-02-03T08:21:43;8.13;;;4.90;;
18693;SDS011;9477;51.414;10.362;2023-02-03T08:23:46;7.60;;;4.20;;
18693;SDS011;9477;51.414;10.362;2023-02-03T08:25:49;5.63;;;4.33;;
18693;SDS011;9477;51.414;10.362;2023-02-03T08:27:53;7.30;;;5.00;;
18693;SDS011;9477;51.414;10.362;2023-02-03T08:29:55;6.00;;;4.80;;
18693;SDS011;9477;51.414;10.362;2023-02-03T08:31:58;9.60;;;5.30;;
18693;SDS011;9477;51.414;10.362;2023-02-03T08:34:02;8.47;;;5.60;;
18693;SDS011;9477;51.414;10.362;2023-02-03T08:36:06;8.10;;;5.30;;
18693;SDS011;9477;51.414;10.362;2023-02-03T08:38:09;6.00;;;5.33;;
18693;SDS011;9477;51.414;10.362;2023-02-03T08:40:12;6.33;;;4.90;;
18693;SDS011;9477;51.414;10.362;2023-02-03T08:42:14;7.50;;;5.20;;
18693;SDS011;9477;51.414;10.362;2023-02-03T08:44:18;7.53;;;4.77;;
18693;SDS011;9477;51.414;10.362;2023-02-03T08:46:21;8.30;;;5.10;;
18693;SDS011;9477;51.414;10.362;2023-02-03T08:48:23;6.93;;;4.70;;
18693;SDS011;9477;51.414;10.362;2023-02-03T08:50:27;5.70;;;4.63;;
18693;SDS011;9477;51.414;10.362;2023-02-03T08:52:31;5.90;;;4.80;;
18693;SDS011;9477;51.414;10.362;2023-02-03T08:54:34;7.37;;;4.90;;
18693;SDS011;9477;51.414;10.362;2023-02-03T08:56:36;5.43;;;4.27;;
18693;SDS011;9477;51.414;10.362;2023-02-03T08:58:39;6.33;;;4.00;;
18693;SDS011;9477;51.414;10.362;2023-02-03T09:00:42;6.70;;;4.20;;
18693;SDS011;9477;51.414;10.362;2023-02-03T09:02:45;5.40;;;3.67;;
18693;SDS011;9477;51.414;10.362;2023-02-03T09:04:48;7.17;;;4.63;;
18693;SDS011;9477;51.414;10.362;2023-02-03T09:06:53;6.87;;;4.40;;
18693;SDS011;9477;51.414;10.362;2023-02-03T09:08:56;7.27;;;4.40;;
18693;SDS011;9477;51.414;10.362;2023-02-03T09:10:59;6.37;;;4.03;;
18693;SDS011;9477;51.414;10.362;2023-02-03T09:13:02;4.97;;;4.13;;
18693;SDS011;9477;51.414;10.362;2023-02-03T09:15:05;4.97;;;4.50;;
18693;SDS011;9477;51.414;10.362;2023-02-03T09:17:08;5.47;;;3.97;;
18693;SDS011;9477;51.414;10.362;2023-02-03T09:19:11;8.97;;;4.23;;
18693;SDS011;9477;51.414;10.362;2023-02-03T09:21:14;4.27;;;3.70;;
18693;SDS011;9477;51.414;10.362;2023-02-03T09:23:33;7.13;;;4.40;;
18693;SDS011;9477;51.414;10.362;2023-02-03T09:25:36;5.73;;;4.10;;
18693;SDS011;9477;51.414;10.362;2023-02-03T09:27:39;4.77;;;4.13;;
18693;SDS011;9477;51.414;10.362;2023-02-03T09:29:42;4.93;;;3.40;;
18693;SDS011;9477;51.414;10.362;2023-02-03T09:31:45;3.73;;;3.43;;
18693;SDS011;9477;51.414;10.362;2023-02-03T09:33:49;4.50;;;3.20;;
18693;SDS011;9477;51.414;10.362;2023-02-03T09:35:52;4.50;;;3.43;;
18693;SDS011;9477;51.414;10.362;2023-02-03T09:37:56;5.07;;;3.60;;
18693;SDS011;9477;51.414;10.362;2023-02-03T09:40:01;5.63;;;3.47;;
18693;SDS011;9477;51.414;10.362;2023-02-03T09:42:08;3.93;;;3.50;;
18693;SDS011;9477;51.414;10.362;2023-02-03T09:44:30;6.60;;;4.00;;
18693;SDS011;9477;51.414;10.362;2023-02-03T09:46:38;4.03;;;3.60;;
18693;SDS011;9477;51.414;10.362;2023-02-03T09:48:48;5.27;;;3.50;;
18693;SDS011;9477;51.414;10.362;2023-02-03T09:50:54;4.70;;;3.30;;
18693;SDS011;9477;51.414;10.362;2023-02-03T09:52:57;5.83;;;4.07;;
18693;SDS011;9477;51.414;10.362;2023-02-03T09:55:06;5.20;;;3.60;;
18693;SDS011;9477;51.414;10.362;2023-02-03T09:57:22;7.57;;;4.50;;
18693;SDS011;9477;51.414;10.362;2023-02-03T09:59:26;10.50;;;7.03;;
18693;SDS011;9477;51.414;10.362;2023-02-03T10:01:33;6.43;;;4.00;;
18693;SDS011;9477;51.414;10.362;2023-02-03T10:03:44;6.13;;;5.43;;
18693;SDS011;9477;51.414;10.362;2023-02-03T10:05:55;5.57;;;4.50;;
18693;SDS011;9477;51.414;10.362;2023-02-03T10:08:17;5.20;;;3.10;;
18693;SDS011;9477;51.414;10.362;2023-02-03T10:10:35;3.50;;;3.20;;
18693;SDS011;9477;51.414;10.362;2023-02-03T10:12:44;5.37;;;3.77;;
18693;SDS011;9477;51.414;10.362;2023-02-03T10:17:29;5.90;;;2.87;;
18693;SDS011;9477;51.414;10.362;2023-02-03T10:19:36;3.30;;;3.00;;
18693;SDS011;9477;51.414;10.362;2023-02-03T10:21:45;3.40;;;3.10;;
18693;SDS011;9477;51.414;10.362;2023-02-03T10:23:52;2.80;;;2.60;;
18693;SDS011;9477;51.414;10.362;2023-02-03T10:25:59;4.37;;;3.23;;
18693;SDS011;9477;51.414;10.362;2023-02-03T10:28:09;6.03;;;3.30;;
18693;SDS011;9477;51.414;10.362;2023-02-03T10:30:18;3.43;;;2.60;;
18693;SDS011;9477;51.414;10.362;2023-02-03T10:32:23;3.50;;;3.20;;
18693;SDS011;9477;51.414;10.362;2023-02-03T10:34:28;4.70;;;3.10;;
18693;SDS011;9477;51.414;10.362;2023-02-03T10:36:34;3.20;;;2.90;;
18693;SDS011;9477;51.414;10.362;2023-02-03T10:38:49;4.60;;;2.43;;
18693;SDS011;9477;51.414;10.362;2023-02-03T10:41:02;2.73;;;2.53;;
18693;SDS011;9477;51.414;10.362;2023-02-03T10:43:05;3.40;;;2.70;;
18693;SDS011;9477;51.414;10.362;2023-02-03T10:45:28;5.43;;;3.30;;
18693;SDS011;9477;51.414;10.362;2023-02-03T10:47:33;6.07;;;3.60;;
18693;SDS011;9477;51.414;10.362;2023-02-03T10:49:38;6.37;;;3.77;;
18693;SDS011;9477;51.414;10.362;2023-02-03T10:51:46;4.20;;;3.23;;
18693;SDS011;9477;51.414;10.362;2023-02-03T10:53:51;4.57;;;3.90;;
18693;SDS011;9477;51.414;10.362;2023-02-03T10:56:03;4.53;;;3.93;;
18693;SDS011;9477;51.414;10.362;2023-02-03T10:58:14;5.87;;;4.70;;
18693;SDS011;9477;51.414;10.362;2023-02-03T11:00:21;8.07;;;5.03;;
18693;SDS011;9477;51.414;10.362;2023-02-03T11:02:26;6.40;;;4.30;;
18693;SDS011;9477;51.414;10.362;2023-02-03T11:04:32;6.70;;;5.27;;
18693;SDS011;9477;51.414;10.362;2023-02-03T11:06:35;5.40;;;4.70;;
18693;SDS011;9477;51.414;10.362;2023-02-03T11:08:56;6.13;;;5.53;;
18693;SDS011;9477;51.414;10.362;2023-02-03T11:11:05;5.73;;;5.13;;
18693;SDS011;9477;51.414;10.362;2023-02-03T11:13:10;7.50;;;5.53;;
18693;SDS011;9477;51.414;10.362;2023-02-03T11:15:14;8.03;;;6.23;;
18693;SDS011;9477;51.414;10.362;2023-02-03T11:17:18;8.37;;;5.20;;
18693;SDS011;9477;51.414;10.362;2023-02-03T11:19:23;6.10;;;5.50;;
18693;SDS011;9477;51.414;10.362;2023-02-03T11:21:27;6.43;;;5.13;;
18693;SDS011;9477;51.414;10.362;2023-02-03T11:23:32;8.73;;;6.03;;
18693;SDS011;9477;51.414;10.362;2023-02-03T11:25:35;9.37;;;6.40;;
18693;SDS011;9477;51.414;10.362;2023-02-03T11:27:42;7.33;;;5.80;;
18693;SDS011;9477;51.414;10.362;2023-02-03T11:29:46;15.60;;;11.10;;
18693;SDS011;9477;51.414;10.362;2023-02-03T11:31:53;6.97;;;5.63;;
18693;SDS011;9477;51.414;10.362;2023-02-03T11:33:57;6.20;;;5.60;;
18693;SDS011;9477;51.414;10.362;2023-02-03T11:36:03;6.07;;;5.00;;
18693;SDS011;9477;51.414;10.362;2023-02-03T11:38:08;5.80;;;5.07;;
18693;SDS011;9477;51.414;10.362;2023-02-03T11:40:30;6.03;;;4.83;;
18693;SDS011;9477;51.414;10.362;2023-02-03T11:42:39;8.07;;;5.33;;
18693;SDS011;9477;51.414;10.362;2023-02-03T11:44:44;5.73;;;5.20;;
18693;SDS011;9477;51.414;10.362;2023-02-03T11:46:47;5.03;;;4.23;;
18693;SDS011;9477;51.414;10.362;2023-02-03T11:48:56;7.00;;;5.43;;
18693;SDS011;9477;51.414;10.362;2023-02-03T11:51:09;7.43;;;4.53;;
18693;SDS011;9477;51.414;10.362;2023-02-03T11:53:26;4.00;;;3.57;;
18693;SDS011;9477;51.414;10.362;2023-02-03T11:55:38;5.67;;;4.67;;
18693;SDS011;9477;51.414;10.362;2023-02-03T11:57:55;7.23;;;5.40;;
18693;SDS011;9477;51.414;10.362;2023-02-03T12:00:13;4.53;;;3.77;;
18693;SDS011;9477;51.414;10.362;2023-02-03T12:02:35;6.70;;;3.20;;
18693;SDS011;9477;51.414;10.362;2023-02-03T12:07:37;6.60;;;4.17;;
18693;SDS011;9477;51.414;10.362;2023-02-03T12:09:51;5.67;;;4.40;;
18693;SDS011;9477;51.414;10.362;2023-02-03T12:12:04;5.77;;;4.13;;
18693;SDS011;9477;51.414;10.362;2023-02-03T12:14:35;7.80;;;5.67;;
18693;SDS011;9477;51.414;10.362;2023-02-03T12:16:57;8.20;;;5.40;;
18693;SDS011;9477;51.414;10.362;2023-02-03T12:19:17;6.27;;;3.80;;
18693;SDS011;9477;51.414;10.362;2023-02-03T12:21:31;6.67;;;3.67;;
18693;SDS011;9477;51.414;10.362;2023-02-03T12:23:45;7.00;;;3.73;;
18693;SDS011;9477;51.414;10.362;2023-02-03T12:25:59;6.27;;;5.03;;
18693;SDS011;9477;51.414;10.362;2023-02-03T12:28:23;5.83;;;3.90;;
18693;SDS011;9477;51.414;10.362;2023-02-03T12:30:37;8.80;;;4.03;;
18693;SDS011;9477;51.414;10.362;2023-02-03T12:32:47;7.33;;;4.00;;
18693;SDS011;9477;51.414;10.362;2023-02-03T12:34:54;9.87;;;3.80;;
18693;SDS011;9477;51.414;10.362;2023-02-03T12:37:04;5.93;;;2.87;;
18693;SDS011;9477;51.414;10.362;2023-02-03T12:39:11;3.70;;;2.57;;
18693;SDS011;9477;51.414;10.362;2023-02-03T12:41:20;8.73;;;5.77;;
18693;SDS011;9477;51.414;10.362;2023-02-03T12:43:29;4.70;;;2.30;;
18693;SDS011;9477;51.414;10.362;2023-02-03T12:45:38;6.67;;;2.10;;
18693;SDS011;9477;51.414;10.362;2023-02-03T12:47:43;7.63;;;1.87;;